Time;durP1;ratioP1;P1;durP2;ratioP2;P2;SDS_P1;SDS_P2;PMS_P1;PMS_P2;Temp;Humidity;BMP_temperature;BMP_pressure;BME280_temperature;BME280_humidity;BME280_pressure;Samples;Min_cycle;Max_cycle;Signal;HPM_P1;HPM_P2
2023/01/31 00:01:28;;;;;;;1.35;1.10;;;19.40;48.30;;;;;;4958263;28;20256;-67
2023/01/31 00:03:57;;;;;;;1.70;1.25;;;19.40;48.30;;;;;;4973815;28;20217;-67
2023/01/31 00:06:33;;;;;;;2.10;1.10;;;19.40;48.30;;;;;;4979553;28;20241;-67
2023/01/31 00:09:00;;;;;;;1.10;1.00;;;19.40;48.30;;;;;;4971757;28;20304;-67
2023/01/31 00:11:28;;;;;;;1.20;1.00;;;19.40;48.30;;;;;;4953164;28;20189;-67
2023/01/31 00:13:56;;;;;;;1.52;1.00;;;19.40;48.20;;;;;;4971953;28;20204;-67
2023/01/31 00:16:22;;;;;;;0.93;0.93;;;19.40;48.20;;;;;;4952607;28;20189;-68
2023/01/31 00:18:48;;;;;;;2.15;1.30;;;19.40;48.30;;;;;;4973519;28;20268;-67
2023/01/31 00:21:24;;;;;;;2.03;1.38;;;19.40;48.30;;;;;;4982338;28;20185;-67
2023/01/31 00:23:52;;;;;;;1.02;0.98;;;19.40;48.30;;;;;;4973984;28;20221;-67
2023/01/31 00:26:25;;;;;;;2.47;1.50;;;19.40;48.20;;;;;;4974077;28;20197;-67
2023/01/31 00:28:53;;;;;;;1.20;1.10;;;19.40;48.20;;;;;;4957656;28;20209;-68
2023/01/31 00:31:21;;;;;;;2.08;1.17;;;19.40;48.30;;;;;;4989829;28;20182;-67
2023/01/31 00:33:50;;;;;;;1.50;0.90;;;19.40;48.30;;;;;;4973944;28;20568;-67
2023/01/31 00:36:21;;;;;;;1.20;1.10;;;19.40;48.20;;;;;;4975087;28;20190;-67
2023/01/31 00:38:57;;;;;;;1.05;0.88;;;19.40;48.20;;;;;;4973026;28;20595;-67
2023/01/31 00:41:26;;;;;;;1.38;1.15;;;19.40;48.30;;;;;;4987765;28;20208;-67
2023/01/31 00:43:52;;;;;;;1.88;1.17;;;19.40;48.30;;;;;;4989644;28;20214;-68
2023/01/31 00:46:22;;;;;;;1.77;1.48;;;19.40;48.20;;;;;;4958037;28;20189;-67
2023/01/31 00:48:49;;;;;;;1.08;0.95;;;19.40;48.30;;;;;;4973316;28;20208;-67
2023/01/31 00:51:15;;;;;;;1.20;1.10;;;19.40;48.30;;;;;;4989552;28;20186;-67
2023/01/31 00:53:41;;;;;;;1.85;1.23;;;19.40;48.30;;;;;;4973385;28;20185;-67
2023/01/31 00:56:11;;;;;;;2.35;1.30;;;19.40;48.30;;;;;;4965682;28;20193;-67
2023/01/31 00:58:38;;;;;;;2.67;1.15;;;19.40;48.30;;;;;;4973148;28;20219;-67
2023/01/31 01:01:11;;;;;;;1.90;1.10;;;19.40;48.30;;;;;;4957531;28;20575;-67
2023/01/31 01:03:39;;;;;;;2.22;1.20;;;19.40;48.40;;;;;;4973330;28;20216;-67
2023/01/31 01:06:06;;;;;;;1.27;0.90;;;19.30;48.30;;;;;;4974388;28;20185;-67
2023/01/31 01:08:34;;;;;;;1.42;0.95;;;19.40;48.30;;;;;;4972905;28;20229;-67
2023/01/31 01:11:15;;;;;;;1.77;1.15;;;19.40;49.00;;;;;;4988650;28;20193;-66
2023/01/31 01:13:42;;;;;;;1.45;1.10;;;19.40;48.40;;;;;;4976816;28;20205;-67
2023/01/31 01:16:25;;;;;;;1.30;1.20;;;19.30;48.30;;;;;;4981566;28;20213;-67
2023/01/31 01:18:53;;;;;;;1.42;1.10;;;19.30;48.40;;;;;;4988597;28;20252;-68
2023/01/31 01:21:28;;;;;;;1.73;1.20;;;19.30;48.40;;;;;;4988239;28;20571;-67
2023/01/31 01:23:59;;;;;;;1.65;0.90;;;19.30;48.40;;;;;;4972652;28;20248;-67
2023/01/31 01:26:30;;;;;;;1.63;1.15;;;19.30;48.40;;;;;;4972893;28;20201;-67
2023/01/31 01:28:58;;;;;;;2.90;1.15;;;19.40;48.40;;;;;;4972562;28;20210;-67
2023/01/31 01:31:28;;;;;;;1.70;1.08;;;19.40;48.40;;;;;;4972276;28;20244;-67
2023/01/31 01:34:00;;;;;;;1.48;1.10;;;19.40;48.50;;;;;;4959179;28;20197;-67
2023/01/31 01:36:27;;;;;;;1.70;0.90;;;19.30;48.40;;;;;;4972656;28;20198;-67
2023/01/31 01:38:54;;;;;;;1.30;0.93;;;19.30;48.40;;;;;;4972363;28;20225;-67
2023/01/31 01:41:22;;;;;;;1.80;1.20;;;19.30;48.40;;;;;;4972303;28;20189;-67
2023/01/31 01:43:58;;;;;;;1.95;1.35;;;19.30;48.40;;;;;;4988330;28;20268;-67
2023/01/31 01:46:34;;;;;;;1.92;1.27;;;19.30;48.40;;;;;;4988914;28;20189;-67
2023/01/31 01:49:18;;;;;;;1.08;0.98;;;19.30;48.40;;;;;;4972240;28;20275;-68
2023/01/31 01:51:47;;;;;;;1.30;1.20;;;19.30;48.50;;;;;;4988219;28;20193;-67
2023/01/31 01:54:24;;;;;;;1.13;0.98;;;19.30;48.50;;;;;;4972378;28;20268;-67
2023/01/31 01:56:56;;;;;;;1.58;1.17;;;19.40;48.60;;;;;;4972301;28;20189;-67
2023/01/31 01:59:32;;;;;;;1.80;1.33;;;19.30;48.50;;;;;;4972096;28;20217;-67
2023/01/31 02:01:58;;;;;;;1.33;1.23;;;19.30;48.50;;;;;;4987994;28;20207;-67
2023/01/31 02:04:36;;;;;;;1.42;1.13;;;19.30;48.50;;;;;;4988214;28;20209;-67
2023/01/31 02:07:02;;;;;;;1.23;1.10;;;19.30;48.40;;;;;;4988295;28;20193;-67
2023/01/31 02:09:40;;;;;;;1.27;1.00;;;19.30;48.40;;;;;;4972758;28;20220;-67
2023/01/31 02:12:08;;;;;;;1.25;1.05;;;19.30;48.40;;;;;;4987616;28;20606;-67
2023/01/31 02:14:35;;;;;;;1.20;0.98;;;19.30;48.40;;;;;;4988303;28;20193;-67
2023/01/31 02:17:01;;;;;;;1.30;1.20;;;19.30;48.40;;;;;;4987729;28;20196;-67
2023/01/31 02:19:43;;;;;;;2.08;1.42;;;19.30;48.40;;;;;;4988077;28;20209;-67
2023/01/31 02:22:34;;;;;;;1.00;0.90;;;19.30;48.40;;;;;;4971599;28;20276;-67
2023/01/31 02:25:30;;;;;;;1.63;1.08;;;19.30;48.30;;;;;;4971633;28;20244;-67
2023/01/31 02:28:28;;;;;;;1.33;1.15;;;19.30;48.40;;;;;;4987714;28;20197;-67
2023/01/31 02:31:32;;;;;;;1.45;1.10;;;19.30;48.30;;;;;;4986826;28;20203;-67
2023/01/31 02:35:02;;;;;;;1.27;1.17;;;19.30;48.30;;;;;;4971421;28;20688;-67
2023/01/31 02:37:53;;;;;;;1.75;0.98;;;19.30;48.30;;;;;;4933470;28;20325;-67
2023/01/31 02:40:51;;;;;;;2.00;1.10;;;19.30;48.30;;;;;;4964853;28;20201;-67
2023/01/31 02:44:57;;;;;;;1.15;0.95;;;19.30;48.30;;;;;;4964247;28;20292;-67
2023/01/31 02:46:46;;;;;;;1.17;1.08;;;19.30;48.30;;;;;;4971770;28;20197;-67
2023/01/31 02:49:33;;;;;;;1.60;1.40;;;19.30;48.30;;;;;;4971354;28;20256;-67
2023/01/31 02:52:55;;;;;;;1.38;1.25;;;19.30;48.30;;;;;;4971234;28;20196;-67
2023/01/31 02:58:29;;;;;;;1.65;1.10;;;19.30;48.30;;;;;;4987385;28;20270;-68
2023/01/31 03:01:02;;;;;;;1.58;1.20;;;19.30;48.30;;;;;;4981775;28;20190;-67
2023/01/31 03:03:33;;;;;;;1.73;0.90;;;19.30;48.30;;;;;;4988007;28;20240;-67
2023/01/31 03:06:11;;;;;;;1.35;1.20;;;19.30;48.30;;;;;;4987540;28;20301;-67
2023/01/31 03:08:41;;;;;;;1.50;1.05;;;19.20;48.20;;;;;;4997867;23;20213;-66
2023/01/31 03:11:09;;;;;;;1.65;1.10;;;19.30;48.30;;;;;;4989543;28;20208;-70
2023/01/31 03:14:06;;;;;;;1.73;1.10;;;19.30;48.30;;;;;;4983290;28;20185;-70
2023/01/31 03:20:12;;;;;;;1.42;1.15;;;19.20;48.20;;;;;;4972499;28;20240;-70
2023/01/31 03:22:54;;;;;;;1.33;1.00;;;19.20;48.20;;;;;;4942865;28;20197;-70
2023/01/31 03:25:26;;;;;;;1.27;0.93;;;19.30;48.20;;;;;;4990659;28;20255;-70
2023/01/31 03:28:00;;;;;;;2.17;1.13;;;19.20;48.80;;;;;;4966391;28;20197;-70
2023/01/31 03:31:00;;;;;;;2.13;0.90;;;19.20;48.20;;;;;;4958167;28;20209;-70
2023/01/31 03:33:34;;;;;;;1.50;1.00;;;19.20;48.20;;;;;;4958276;28;20189;-70
2023/01/31 03:36:32;;;;;;;1.42;1.00;;;19.20;48.20;;;;;;4956124;28;20280;-70
2023/01/31 03:39:38;;;;;;;1.75;1.02;;;19.30;48.40;;;;;;4959070;28;20220;-70
2023/01/31 03:42:24;;;;;;;1.40;0.90;;;19.20;48.20;;;;;;4991352;28;20198;-70
2023/01/31 03:45:13;;;;;;;1.20;1.00;;;19.20;48.20;;;;;;4977698;28;20200;-69
2023/01/31 03:47:47;;;;;;;1.23;1.10;;;19.20;48.20;;;;;;4961690;28;20212;-70
2023/01/31 03:50:49;;;;;;;1.33;1.20;;;19.30;48.30;;;;;;4955461;28;20221;-70
2023/01/31 03:53:23;;;;;;;1.52;1.23;;;19.20;48.20;;;;;;4966577;28;20696;-70
2023/01/31 03:56:20;;;;;;;2.42;1.00;;;19.20;48.20;;;;;;4961697;28;20185;-70
2023/01/31 03:58:58;;;;;;;1.83;1.05;;;19.30;48.40;;;;;;4957701;28;20199;-70
2023/01/31 04:01:28;;;;;;;1.48;1.30;;;19.20;48.30;;;;;;4953651;28;20185;-70
2023/01/31 04:04:27;;;;;;;2.17;1.00;;;19.20;48.20;;;;;;4977315;28;20295;-70
2023/01/31 04:06:53;;;;;;;2.22;0.98;;;19.20;48.20;;;;;;4974469;28;20193;-69
2023/01/31 04:09:20;;;;;;;1.75;1.10;;;19.20;48.20;;;;;;4993671;28;20208;-70
2023/01/31 04:11:48;;;;;;;1.90;1.10;;;19.20;48.30;;;;;;4993403;28;20195;-70
2023/01/31 04:14:15;;;;;;;1.48;1.13;;;19.20;48.30;;;;;;4977425;28;20177;-70
2023/01/31 04:16:40;;;;;;;1.15;0.90;;;19.20;48.30;;;;;;4992966;28;20217;-70
2023/01/31 04:19:06;;;;;;;1.42;1.00;;;19.20;48.30;;;;;;4955443;28;20666;-70
2023/01/31 04:21:32;;;;;;;2.10;1.10;;;19.20;48.30;;;;;;4965919;28;20190;-70
2023/01/31 04:23:57;;;;;;;1.73;1.10;;;19.20;48.30;;;;;;4960617;28;20247;-70
2023/01/31 04:26:23;;;;;;;1.27;1.10;;;19.20;48.30;;;;;;4961473;28;20348;-70
2023/01/31 04:28:51;;;;;;;0.70;0.70;;;19.20;48.30;;;;;;4977066;28;20270;-70
2023/01/31 04:31:16;;;;;;;1.20;1.10;;;19.20;48.30;;;;;;4989836;28;20201;-70
2023/01/31 04:33:42;;;;;;;1.20;1.08;;;19.20;48.30;;;;;;4965859;28;20194;-70
2023/01/31 04:36:09;;;;;;;1.40;1.05;;;19.20;48.30;;;;;;4950729;28;20193;-70
2023/01/31 04:38:34;;;;;;;1.55;1.15;;;19.20;48.30;;;;;;4984430;28;20193;-70
2023/01/31 04:41:00;;;;;;;1.50;1.10;;;19.20;48.30;;;;;;4983983;28;20194;-70
2023/01/31 04:43:26;;;;;;;1.52;1.20;;;19.20;48.30;;;;;;4958723;28;20209;-70
2023/01/31 04:45:51;;;;;;;1.40;1.13;;;19.20;48.30;;;;;;4965451;28;20221;-70
2023/01/31 04:48:17;;;;;;;1.75;0.90;;;19.20;48.20;;;;;;4976540;28;20180;-70
2023/01/31 04:50:43;;;;;;;1.48;1.00;;;19.20;48.30;;;;;;4976382;28;20216;-70
2023/01/31 04:53:09;;;;;;;1.98;1.00;;;19.20;48.30;;;;;;4952812;28;20193;-69
2023/01/31 04:55:35;;;;;;;1.75;1.08;;;19.20;48.20;;;;;;4970447;28;20270;-70
2023/01/31 04:58:01;;;;;;;1.23;1.13;;;19.20;48.30;;;;;;4962718;28;20232;-70
2023/01/31 05:00:27;;;;;;;1.60;1.10;;;19.20;48.20;;;;;;4965074;28;20205;-70
2023/01/31 05:02:53;;;;;;;2.90;1.25;;;19.10;48.20;;;;;;4965438;28;20221;-69
2023/01/31 05:05:19;;;;;;;1.67;1.30;;;19.20;48.20;;;;;;4961438;28;20216;-70
2023/01/31 05:07:45;;;;;;;1.00;0.90;;;19.20;48.20;;;;;;4976733;28;20195;-69
2023/01/31 05:10:12;;;;;;;1.27;0.90;;;19.20;48.20;;;;;;4968708;28;20291;-70
2023/01/31 05:12:38;;;;;;;1.35;0.93;;;19.20;48.20;;;;;;4976802;28;20196;-70
2023/01/31 05:15:06;;;;;;;1.40;1.08;;;19.20;48.20;;;;;;4990813;28;20291;-70
2023/01/31 05:17:33;;;;;;;1.15;1.00;;;19.10;48.10;;;;;;4973265;28;20186;-70
2023/01/31 05:19:59;;;;;;;1.90;1.20;;;19.20;48.20;;;;;;4976037;28;20236;-70
2023/01/31 05:22:25;;;;;;;2.50;1.20;;;19.20;48.20;;;;;;4976620;28;20586;-70
2023/01/31 05:24:51;;;;;;;1.83;1.13;;;19.20;48.20;;;;;;4973325;28;20284;-70
2023/01/31 05:27:18;;;;;;;1.95;1.35;;;19.20;48.20;;;;;;4968623;28;20200;-70
2023/01/31 05:29:44;;;;;;;1.58;1.10;;;19.20;48.10;;;;;;4989644;28;20213;-70
2023/01/31 05:32:11;;;;;;;1.08;0.98;;;19.20;48.10;;;;;;4972934;28;20201;-70
2023/01/31 05:34:37;;;;;;;1.95;1.20;;;19.10;48.10;;;;;;4976521;28;20197;-71
2023/01/31 05:37:03;;;;;;;1.30;0.95;;;19.10;48.10;;;;;;4959598;28;20196;-70
2023/01/31 05:39:30;;;;;;;2.55;0.90;;;19.10;48.10;;;;;;4965701;28;20205;-70
2023/01/31 05:41:56;;;;;;;1.30;1.00;;;19.10;48.10;;;;;;4951437;28;20281;-72
2023/01/31 05:44:22;;;;;;;1.38;1.17;;;19.10;48.00;;;;;;4956960;28;20272;-70
2023/01/31 05:46:48;;;;;;;1.30;1.20;;;19.10;48.10;;;;;;4981239;28;20674;-70
2023/01/31 05:49:14;;;;;;;2.60;1.30;;;19.10;48.00;;;;;;4975745;28;20267;-70
2023/01/31 05:51:41;;;;;;;1.50;1.00;;;19.10;48.10;;;;;;4970634;28;20248;-71
2023/01/31 05:54:07;;;;;;;2.13;1.25;;;19.10;48.00;;;;;;4972777;28;20193;-71
2023/01/31 05:56:33;;;;;;;1.48;1.10;;;19.10;47.90;;;;;;4947677;28;20197;-70
2023/01/31 05:59:01;;;;;;;2.03;1.08;;;19.10;47.90;;;;;;4985718;28;20642;-70
2023/01/31 06:01:27;;;;;;;1.10;1.00;;;19.10;48.00;;;;;;4948682;28;20216;-70
2023/01/31 06:03:53;;;;;;;1.20;1.10;;;19.10;48.00;;;;;;4971893;28;20212;-70
2023/01/31 06:06:20;;;;;;;1.30;1.20;;;19.10;48.00;;;;;;4957256;28;20197;-71
2023/01/31 06:08:46;;;;;;;2.22;1.33;;;19.10;47.90;;;;;;4962944;28;20240;-71
2023/01/31 06:11:12;;;;;;;1.67;1.20;;;19.10;47.90;;;;;;4990165;28;20216;-71
2023/01/31 06:13:42;;;;;;;2.80;1.38;;;19.10;47.90;;;;;;4953824;28;20189;-71
2023/01/31 06:16:09;;;;;;;1.77;1.23;;;19.10;47.90;;;;;;4966851;28;20189;-70
2023/01/31 06:18:35;;;;;;;1.48;1.10;;;19.10;48.00;;;;;;4970331;28;20294;-71
2023/01/31 06:21:01;;;;;;;1.38;1.13;;;19.10;47.90;;;;;;4962590;28;20272;-71
2023/01/31 06:23:27;;;;;;;2.38;1.30;;;19.10;47.90;;;;;;4987808;28;20209;-71
2023/01/31 06:25:54;;;;;;;1.45;1.08;;;19.10;47.90;;;;;;4987591;28;20235;-71
2023/01/31 06:28:21;;;;;;;1.15;1.05;;;19.10;47.90;;;;;;4991596;28;20201;-71
2023/01/31 06:30:48;;;;;;;1.55;0.98;;;19.10;47.90;;;;;;4970075;28;20275;-70
2023/01/31 06:33:14;;;;;;;2.15;1.20;;;19.10;48.00;;;;;;4967854;28;20685;-71
2023/01/31 06:35:40;;;;;;;1.83;1.42;;;19.10;47.90;;;;;;4980149;28;20193;-70
2023/01/31 06:38:07;;;;;;;1.83;1.15;;;19.10;47.90;;;;;;4980532;28;20233;-70
2023/01/31 06:40:35;;;;;;;2.00;1.27;;;19.10;47.90;;;;;;4967282;28;20276;-70
2023/01/31 06:43:01;;;;;;;1.70;1.40;;;19.10;48.00;;;;;;4974489;28;20303;-70
2023/01/31 06:45:27;;;;;;;2.25;1.20;;;19.10;47.90;;;;;;4972851;28;20193;-70
2023/01/31 06:47:53;;;;;;;2.83;1.20;;;19.10;47.90;;;;;;4966746;28;20203;-71
2023/01/31 06:50:19;;;;;;;2.33;1.30;;;19.10;48.00;;;;;;4964303;28;20220;-70
2023/01/31 06:52:44;;;;;;;2.15;1.33;;;19.10;47.90;;;;;;4986382;28;20193;-70
2023/01/31 06:55:10;;;;;;;3.45;1.50;;;19.10;48.00;;;;;;4987725;28;20190;-70
2023/01/31 06:57:44;;;;;;;2.05;1.48;;;19.10;47.90;;;;;;4967543;28;20180;-70
2023/01/31 07:00:11;;;;;;;2.75;1.20;;;19.10;47.90;;;;;;4974449;28;20228;-70
2023/01/31 07:02:37;;;;;;;1.83;1.30;;;19.10;48.00;;;;;;4974459;28;20270;-70
2023/01/31 07:05:03;;;;;;;2.78;1.50;;;19.10;47.90;;;;;;4958407;28;20201;-70
2023/01/31 07:07:28;;;;;;;1.52;1.38;;;19.10;47.90;;;;;;4963703;28;20196;-70
2023/01/31 07:09:55;;;;;;;1.77;1.40;;;19.10;47.90;;;;;;4966478;28;20220;-70
2023/01/31 07:12:21;;;;;;;1.67;1.30;;;19.10;47.90;;;;;;4980131;28;20186;-70
2023/01/31 07:14:47;;;;;;;2.08;1.20;;;19.10;47.90;;;;;;4963198;28;20205;-70
2023/01/31 07:17:12;;;;;;;2.58;1.70;;;19.10;47.90;;;;;;4972070;28;20192;-71
2023/01/31 07:19:38;;;;;;;2.92;1.52;;;19.10;47.90;;;;;;4978066;28;20205;-70
2023/01/31 07:22:04;;;;;;;2.58;1.42;;;19.10;47.90;;;;;;4962222;28;20201;-70
2023/01/31 07:24:29;;;;;;;2.22;1.30;;;19.10;47.90;;;;;;4978394;28;20800;-69
2023/01/31 07:26:55;;;;;;;3.53;1.60;;;19.10;47.90;;;;;;4955405;28;20190;-70
2023/01/31 07:29:21;;;;;;;2.95;1.70;;;19.10;47.90;;;;;;4974778;28;20228;-70
2023/01/31 07:31:46;;;;;;;2.45;1.75;;;19.10;47.80;;;;;;4974906;28;20435;-71
2023/01/31 07:34:12;;;;;;;2.80;1.83;;;19.10;47.80;;;;;;4951922;28;20188;-71
2023/01/31 07:36:38;;;;;;;1.90;1.30;;;19.10;47.90;;;;;;4976052;28;20192;-71
2023/01/31 07:39:05;;;;;;;2.65;1.58;;;19.10;47.80;;;;;;4976261;28;20262;-69
2023/01/31 07:41:30;;;;;;;3.50;1.67;;;19.10;47.90;;;;;;4982710;28;20198;-71
2023/01/31 07:43:58;;;;;;;3.22;1.70;;;19.10;47.80;;;;;;4970222;28;20287;-71
2023/01/31 07:46:23;;;;;;;1.90;1.55;;;19.10;47.80;;;;;;4978042;28;20276;-70
2023/01/31 07:48:49;;;;;;;2.85;1.73;;;19.10;47.80;;;;;;4977793;28;20221;-70
2023/01/31 07:51:15;;;;;;;2.67;1.80;;;19.10;47.80;;;;;;4977605;28;20193;-71
2023/01/31 07:53:41;;;;;;;2.55;1.70;;;19.10;47.80;;;;;;4982417;28;20185;-71
2023/01/31 07:56:15;;;;;;;2.83;1.90;;;19.10;47.80;;;;;;4966283;28;20212;-71
2023/01/31 07:58:43;;;;;;;1.88;1.48;;;19.20;47.90;;;;;;4971072;28;20196;-71
2023/01/31 08:04:00;;;;;;;2.30;1.65;;;19.10;47.80;;;;;;4977480;28;20248;-71
2023/01/31 08:06:29;;;;;;;1.77;1.55;;;19.20;47.90;;;;;;4966762;28;20190;-70
2023/01/31 08:08:56;;;;;;;1.85;1.30;;;19.10;47.80;;;;;;4964517;28;20213;-71
2023/01/31 08:11:22;;;;;;;3.08;1.70;;;19.10;47.80;;;;;;4982337;28;20228;-71
2023/01/31 08:13:48;;;;;;;2.42;1.80;;;19.20;47.80;;;;;;4966297;28;20205;-71
2023/01/31 08:16:15;;;;;;;1.92;1.38;;;19.20;47.80;;;;;;4983232;28;20243;-71
2023/01/31 08:18:41;;;;;;;3.40;1.50;;;19.20;47.80;;;;;;4994336;28;20243;-70
2023/01/31 08:21:10;;;;;;;2.63;1.67;;;19.20;47.80;;;;;;4990071;28;20296;-70
2023/01/31 08:23:38;;;;;;;2.30;1.45;;;19.20;47.80;;;;;;4969776;28;20209;-71
2023/01/31 08:26:16;;;;;;;2.55;1.50;;;19.20;47.90;;;;;;4994608;28;20227;-70
2023/01/31 08:28:44;;;;;;;3.58;1.73;;;19.20;47.90;;;;;;4972243;28;20244;-70
2023/01/31 08:31:15;;;;;;;2.33;1.60;;;19.20;47.80;;;;;;4975117;28;20189;-70
2023/01/31 08:33:41;;;;;;;1.83;1.42;;;19.20;47.80;;;;;;4960986;28;20192;-71
2023/01/31 08:36:30;;;;;;;2.13;1.77;;;19.20;47.80;;;;;;4974789;28;20704;-70
2023/01/31 08:38:57;;;;;;;2.17;1.50;;;19.20;47.80;;;;;;4973826;28;20232;-70
2023/01/31 08:41:25;;;;;;;2.55;1.60;;;19.20;47.80;;;;;;4942578;28;20261;-70
2023/01/31 08:43:51;;;;;;;2.65;1.80;;;19.20;47.80;;;;;;4960715;28;20209;-71
2023/01/31 08:46:17;;;;;;;2.10;1.20;;;19.20;47.80;;;;;;4994325;28;20580;-70
2023/01/31 08:48:43;;;;;;;2.67;1.65;;;19.30;47.90;;;;;;4972091;28;20264;-70
2023/01/31 08:51:12;;;;;;;2.85;1.50;;;19.20;47.80;;;;;;4970281;28;20224;-70
2023/01/31 08:53:42;;;;;;;2.55;2.00;;;19.30;47.90;;;;;;4973571;28;20260;-71
2023/01/31 08:56:08;;;;;;;3.45;2.00;;;19.30;48.50;;;;;;4965541;28;20252;-70
2023/01/31 08:58:37;;;;;;;1.92;1.70;;;19.30;47.80;;;;;;4973407;28;20197;-71
2023/01/31 09:01:21;;;;;;;2.10;1.42;;;19.30;47.90;;;;;;4960232;28;20250;-71
2023/01/31 09:03:49;;;;;;;2.17;1.45;;;19.30;47.80;;;;;;4965244;28;20248;-70
2023/01/31 09:06:21;;;;;;;2.30;1.42;;;19.30;47.80;;;;;;4965793;28;20241;-70
2023/01/31 09:08:47;;;;;;;2.80;1.50;;;19.30;47.80;;;;;;4994677;28;20620;-71
2023/01/31 09:11:16;;;;;;;1.92;1.60;;;19.30;47.80;;;;;;5006764;23;20232;-66
2023/01/31 09:13:42;;;;;;;2.13;1.50;;;19.30;47.80;;;;;;5013622;28;20273;-67
2023/01/31 09:16:11;;;;;;;2.25;1.30;;;19.30;47.80;;;;;;5005477;28;20197;-67
2023/01/31 09:18:39;;;;;;;2.85;1.63;;;19.30;47.80;;;;;;4983808;28;20193;-67
2023/01/31 09:21:10;;;;;;;1.90;1.38;;;19.30;47.80;;;;;;4976059;28;20217;-66
2023/01/31 09:23:37;;;;;;;3.05;1.40;;;19.30;47.80;;;;;;4960176;28;20255;-67
2023/01/31 09:26:04;;;;;;;1.58;1.40;;;19.30;47.90;;;;;;4975944;28;20267;-66
2023/01/31 09:28:30;;;;;;;2.22;1.77;;;19.30;47.90;;;;;;4976195;28;20196;-66
2023/01/31 09:31:05;;;;;;;2.90;1.50;;;19.30;47.90;;;;;;4975857;28;20209;-67
2023/01/31 09:33:33;;;;;;;2.30;1.20;;;19.30;47.90;;;;;;4975790;28;20271;-66
2023/01/31 09:36:06;;;;;;;2.42;1.48;;;19.30;47.80;;;;;;4975922;28;20201;-67
2023/01/31 09:38:33;;;;;;;2.80;1.95;;;19.40;47.90;;;;;;4956281;28;20693;-66
2023/01/31 09:41:03;;;;;;;2.58;1.70;;;19.30;47.90;;;;;;4965213;28;20212;-67
2023/01/31 09:43:40;;;;;;;2.72;1.42;;;19.30;47.80;;;;;;4975664;28;20706;-67
2023/01/31 09:46:15;;;;;;;2.60;1.60;;;19.30;47.80;;;;;;4991985;28;20312;-66
2023/01/31 09:48:46;;;;;;;2.13;1.30;;;19.30;47.80;;;;;;4992029;28;20271;-66
2023/01/31 09:51:14;;;;;;;2.17;1.52;;;19.30;47.80;;;;;;4975356;28;20216;-66
2023/01/31 09:53:41;;;;;;;1.42;1.30;;;19.30;47.80;;;;;;4975560;28;20181;-66
2023/01/31 09:57:13;;;;;;;2.25;1.20;;;19.30;47.90;;;;;;4959372;28;20188;-66
2023/01/31 09:59:50;;;;;;;2.05;1.40;;;19.30;47.80;;;;;;4909848;29;20354;-66
2023/01/31 10:02:27;;;;;;;1.50;1.38;;;19.40;47.90;;;;;;4916456;29;20203;-66
2023/01/31 10:05:13;;;;;;;1.50;1.10;;;19.40;47.90;;;;;;4944991;28;20240;-66
2023/01/31 10:08:16;;;;;;;2.45;1.63;;;19.40;47.80;;;;;;4974008;28;20185;-66
2023/01/31 10:10:50;;;;;;;1.63;1.30;;;19.40;47.90;;;;;;4941021;28;20311;-66
2023/01/31 10:13:56;;;;;;;2.83;1.50;;;19.40;47.90;;;;;;4964862;28;20232;-67
2023/01/31 10:17:02;;;;;;;1.90;1.20;;;19.40;47.80;;;;;;4984943;28;20272;-67
2023/01/31 10:19:38;;;;;;;2.17;1.30;;;19.40;48.00;;;;;;4987065;28;20714;-67
2023/01/31 10:22:11;;;;;;;1.77;1.35;;;19.40;47.90;;;;;;4959537;28;20204;-66
2023/01/31 10:25:24;;;;;;;1.58;1.35;;;19.50;48.00;;;;;;4959626;28;20208;-67
2023/01/31 10:28:36;;;;;;;2.10;1.63;;;19.40;47.90;;;;;;4975814;28;20201;-67
2023/01/31 10:31:37;;;;;;;1.63;1.38;;;19.40;47.90;;;;;;4931167;28;20220;-67
2023/01/31 10:34:25;;;;;;;1.80;1.30;;;19.40;47.90;;;;;;4986890;28;20235;-67
2023/01/31 10:36:58;;;;;;;2.08;1.20;;;19.40;47.90;;;;;;4959281;28;20231;-67
2023/01/31 10:39:48;;;;;;;1.60;1.33;;;19.40;47.90;;;;;;4991232;28;20580;-67
2023/01/31 10:42:22;;;;;;;2.05;1.52;;;19.40;47.90;;;;;;4955792;28;20197;-67
2023/01/31 10:45:15;;;;;;;2.47;1.67;;;19.40;47.90;;;;;;4968666;28;20220;-67
2023/01/31 10:47:55;;;;;;;3.10;1.92;;;19.40;47.90;;;;;;4960042;28;20219;-67
2023/01/31 10:50:44;;;;;;;3.67;2.65;;;19.40;47.90;;;;;;4991241;28;20209;-67
2023/01/31 10:53:54;;;;;;;6.38;3.58;;;19.50;48.00;;;;;;4958764;28;20227;-67
2023/01/31 10:56:39;;;;;;;9.02;5.20;;;19.40;47.90;;;;;;4971767;28;20190;-67
2023/01/31 10:59:33;;;;;;;7.75;4.25;;;19.40;47.90;;;;;;4975399;28;20185;-67
2023/01/31 11:02:01;;;;;;;7.53;4.40;;;19.40;47.80;;;;;;4975145;28;20199;-67
2023/01/31 11:04:40;;;;;;;8.65;4.57;;;19.50;47.80;;;;;;4975354;28;20279;-67
2023/01/31 11:07:07;;;;;;;6.47;4.75;;;19.40;47.60;;;;;;4975436;28;20222;-67
2023/01/31 11:09:40;;;;;;;8.05;4.60;;;19.40;47.60;;;;;;4958973;28;20252;-67
2023/01/31 11:12:07;;;;;;;8.95;4.65;;;19.50;47.70;;;;;;4975141;28;20189;-67
2023/01/31 11:14:35;;;;;;;10.07;5.63;;;19.40;47.60;;;;;;4969230;28;20185;-66
2023/01/31 11:17:19;;;;;;;8.13;5.35;;;19.40;47.60;;;;;;4967675;28;20264;-66
2023/01/31 11:19:53;;;;;;;10.48;6.13;;;19.50;47.70;;;;;;4974893;28;20216;-67
2023/01/31 11:22:31;;;;;;;10.15;6.22;;;19.50;47.70;;;;;;4955921;28;20275;-65
2023/01/31 11:25:03;;;;;;;10.18;6.03;;;19.50;47.70;;;;;;4955221;28;20270;-66
2023/01/31 11:27:41;;;;;;;10.13;6.78;;;19.50;47.70;;;;;;4964912;28;20200;-65
2023/01/31 11:30:31;;;;;;;10.45;6.53;;;19.50;47.80;;;;;;4986350;28;20213;-66
2023/01/31 11:32:57;;;;;;;13.77;7.38;;;19.50;47.80;;;;;;4991222;28;20193;-66
2023/01/31 11:35:30;;;;;;;10.30;7.20;;;19.50;47.70;;;;;;4974369;28;20203;-66
2023/01/31 11:38:21;;;;;;;11.43;7.43;;;19.50;47.70;;;;;;4955864;28;20194;-66
2023/01/31 11:40:47;;;;;;;12.93;7.95;;;19.50;47.70;;;;;;4975409;28;20225;-65
2023/01/31 11:43:13;;;;;;;14.55;8.02;;;19.50;47.70;;;;;;4981536;28;20276;-66
2023/01/31 11:45:45;;;;;;;11.30;7.30;;;19.50;47.70;;;;;;4966910;28;20189;-66
2023/01/31 11:48:21;;;;;;;14.48;8.15;;;19.50;47.70;;;;;;4967127;28;20208;-66
2023/01/31 11:51:01;;;;;;;15.52;8.82;;;19.50;47.70;;;;;;4970643;28;20228;-65
2023/01/31 11:53:49;;;;;;;15.93;8.80;;;19.50;47.70;;;;;;4966920;28;20225;-66
2023/01/31 11:56:23;;;;;;;15.75;8.55;;;19.50;47.70;;;;;;4955271;28;20284;-66
2023/01/31 11:58:54;;;;;;;13.00;8.27;;;19.50;47.70;;;;;;4974583;28;20283;-66
2023/01/31 12:01:24;;;;;;;13.60;8.27;;;19.50;48.30;;;;;;4974180;28;20212;-67
2023/01/31 12:04:02;;;;;;;14.27;9.23;;;19.60;47.80;;;;;;4985550;28;20205;-67
2023/01/31 12:06:35;;;;;;;14.65;9.00;;;19.60;47.80;;;;;;4962080;28;20188;-66
2023/01/31 12:09:17;;;;;;;17.65;9.57;;;19.60;47.80;;;;;;4961685;28;20243;-67
2023/01/31 12:11:57;;;;;;;12.77;8.80;;;19.60;47.80;;;;;;4977944;28;20185;-66
2023/01/31 12:14:46;;;;;;;16.60;9.30;;;19.60;47.80;;;;;;4977697;28;20687;-66
2023/01/31 12:17:16;;;;;;;14.98;9.48;;;19.60;47.80;;;;;;4977516;28;20197;-66
2023/01/31 12:19:57;;;;;;;15.68;8.80;;;19.60;47.80;;;;;;4994906;28;20239;-66
2023/01/31 12:22:34;;;;;;;14.20;9.68;;;19.60;47.80;;;;;;4977236;28;20276;-66
2023/01/31 12:25:21;;;;;;;15.02;9.25;;;19.60;47.80;;;;;;4971852;28;20218;-66
2023/01/31 12:28:15;;;;;;;15.10;9.93;;;19.60;47.80;;;;;;4994117;28;20192;-66
2023/01/31 12:30:50;;;;;;;15.68;9.38;;;19.60;47.80;;;;;;4977260;28;20212;-66
2023/01/31 12:33:47;;;;;;;14.02;9.57;;;19.60;47.80;;;;;;4961349;28;20574;-66
2023/01/31 12:36:54;;;;;;;17.60;10.27;;;19.70;47.80;;;;;;4985363;28;20189;-67
2023/01/31 12:39:50;;;;;;;16.70;10.55;;;19.60;47.80;;;;;;4969572;28;20621;-65
2023/01/31 12:42:59;;;;;;;17.55;10.23;;;19.70;47.90;;;;;;4977483;28;20608;-64
2023/01/31 12:45:30;;;;;;;17.13;10.23;;;19.70;47.90;;;;;;4968648;28;20197;-66
2023/01/31 12:48:26;;;;;;;14.98;9.77;;;19.70;48.00;;;;;;4957426;28;20188;-66
2023/01/31 12:51:07;;;;;;;14.65;9.27;;;19.70;47.90;;;;;;4946468;28;20303;-66
2023/01/31 12:54:05;;;;;;;15.57;9.68;;;19.70;47.90;;;;;;4961018;28;20184;-66
2023/01/31 12:56:50;;;;;;;16.15;9.88;;;19.70;47.90;;;;;;4951176;28;20201;-66
2023/01/31 12:59:23;;;;;;;17.40;10.88;;;19.70;47.90;;;;;;4992945;28;20621;-66
2023/01/31 13:02:15;;;;;;;15.23;9.57;;;19.70;47.90;;;;;;4961651;28;20200;-66
2023/01/31 13:04:58;;;;;;;14.90;9.90;;;19.70;47.90;;;;;;4960622;28;20208;-67
2023/01/31 13:07:44;;;;;;;15.57;10.18;;;19.70;47.90;;;;;;4961103;28;20244;-66
2023/01/31 13:10:34;;;;;;;12.95;9.10;;;19.70;47.90;;;;;;4961047;28;20217;-67
2023/01/31 13:13:01;;;;;;;15.35;9.27;;;19.70;47.90;;;;;;4965575;28;20268;-66
2023/01/31 13:15:49;;;;;;;13.43;9.25;;;19.70;47.80;;;;;;4973577;28;20189;-67
2023/01/31 13:18:16;;;;;;;14.88;9.30;;;19.70;47.90;;;;;;4994191;28;20331;-67
2023/01/31 13:21:00;;;;;;;14.73;9.63;;;19.70;47.80;;;;;;4976865;28;20201;-67
2023/01/31 13:23:40;;;;;;;13.82;10.02;;;19.70;47.90;;;;;;4960440;28;20355;-68
2023/01/31 13:26:20;;;;;;;14.63;9.40;;;19.70;47.80;;;;;;4971002;28;20185;-66
2023/01/31 13:29:03;;;;;;;14.40;9.40;;;19.70;47.90;;;;;;4957754;28;20601;-66
2023/01/31 13:32:07;;;;;;;14.30;9.15;;;19.70;47.90;;;;;;4957454;28;20308;-66